Time;durP1;ratioP1;P1;durP2;ratioP2;P2;SDS_P1;SDS_P2;PMS_P1;PMS_P2;Temp;Humidity;BMP_temperature;BMP_pressure;BME280_temperature;BME280_humidity;BME280_pressure;Samples;Min_cycle;Max_cycle;Signal;HPM_P1;HPM_P2
2021/09/21 00:01:03;;;;;;;1.20;1.10;;;19.40;75.50;;;;;;5091759;28;20048;-55
2021/09/21 00:03:30;;;;;;;1.52;1.23;;;19.40;75.50;;;;;;5092347;28;20044;-54
2021/09/21 00:05:55;;;;;;;1.20;1.10;;;19.40;75.60;;;;;;5092544;28;20134;-54
2021/09/21 00:08:21;;;;;;;1.17;1.08;;;19.40;75.50;;;;;;5090495;28;20082;-49
2021/09/21 00:10:47;;;;;;;1.30;1.20;;;19.40;75.50;;;;;;5092071;28;20040;-57
2021/09/21 00:13:12;;;;;;;2.17;1.10;;;19.40;75.50;;;;;;5091707;28;20472;-55
2021/09/21 00:15:38;;;;;;;0.95;0.90;;;19.40;75.50;;;;;;5089787;28;20052;-54
2021/09/21 00:18:04;;;;;;;1.20;1.10;;;19.40;75.50;;;;;;5092049;28;20044;-51
2021/09/21 00:20:29;;;;;;;1.25;1.13;;;19.40;75.50;;;;;;5090565;28;20056;-56
2021/09/21 00:22:55;;;;;;;1.30;1.10;;;19.40;75.50;;;;;;5095147;28;20153;-53
2021/09/21 00:25:21;;;;;;;1.27;1.17;;;19.40;75.50;;;;;;5096250;28;20062;-56
2021/09/21 00:27:47;;;;;;;1.60;1.10;;;19.40;75.50;;;;;;5096103;28;20038;-54
2021/09/21 00:30:15;;;;;;;1.10;1.00;;;19.40;75.50;;;;;;5096469;28;20044;-54
2021/09/21 00:32:44;;;;;;;1.30;1.15;;;19.40;75.50;;;;;;5096275;28;20127;-59
2021/09/21 00:35:10;;;;;;;1.30;1.20;;;19.40;75.50;;;;;;5094509;28;20091;-50
2021/09/21 00:37:38;;;;;;;1.30;1.20;;;19.40;75.50;;;;;;5096075;28;20054;-55
2021/09/21 00:40:04;;;;;;;1.27;1.10;;;19.40;75.50;;;;;;5095925;28;20512;-57
2021/09/21 00:42:31;;;;;;;1.40;1.30;;;19.40;75.50;;;;;;5096085;28;20040;-56
2021/09/21 00:45:06;;;;;;;1.30;1.20;;;19.40;75.50;;;;;;5095560;28;20039;-56
2021/09/21 00:47:32;;;;;;;1.23;1.13;;;19.40;75.50;;;;;;5095319;28;20451;-57
2021/09/21 00:49:58;;;;;;;1.30;1.20;;;19.40;75.50;;;;;;5095713;28;20067;-56
2021/09/21 00:52:25;;;;;;;1.00;0.90;;;19.40;75.50;;;;;;5094975;28;20051;-56
2021/09/21 00:54:51;;;;;;;1.30;1.20;;;19.40;75.50;;;;;;5095675;28;20089;-57
2021/09/21 00:57:17;;;;;;;1.42;1.30;;;19.40;75.50;;;;;;5095066;28;20438;-59
2021/09/21 00:59:43;;;;;;;1.30;1.20;;;19.40;75.50;;;;;;5093933;28;20075;-55
2021/09/21 01:02:09;;;;;;;1.48;1.20;;;19.40;75.50;;;;;;5095545;28;20122;-54
2021/09/21 01:04:38;;;;;;;1.45;1.10;;;19.40;75.50;;;;;;5094299;28;20497;-56
2021/09/21 01:07:04;;;;;;;1.05;0.98;;;19.40;75.50;;;;;;5095351;28;20055;-58
2021/09/21 01:09:30;;;;;;;1.10;1.00;;;19.40;75.50;;;;;;5095068;28;20055;-61
2021/09/21 01:11:59;;;;;;;1.27;1.17;;;19.40;75.50;;;;;;5094648;28;20040;-61
2021/09/21 01:14:25;;;;;;;1.40;1.30;;;19.40;75.50;;;;;;5095087;28;20052;-56
2021/09/21 01:16:53;;;;;;;1.33;1.17;;;19.40;75.50;;;;;;5095727;28;20392;-60
2021/09/21 01:19:19;;;;;;;1.35;1.25;;;19.40;75.50;;;;;;5095239;28;20036;-60
2021/09/21 01:21:47;;;;;;;1.50;1.25;;;19.40;75.50;;;;;;5095442;28;20488;-62
2021/09/21 01:24:14;;;;;;;1.27;1.17;;;19.40;75.50;;;;;;5095469;28;20166;-60
2021/09/21 01:26:41;;;;;;;1.30;1.20;;;19.40;75.50;;;;;;5095491;28;20036;-61
2021/09/21 01:29:07;;;;;;;1.08;1.02;;;19.40;75.50;;;;;;5094909;28;20067;-61
2021/09/21 01:31:34;;;;;;;1.17;1.10;;;19.40;75.50;;;;;;5095446;28;20404;-61
2021/09/21 01:34:00;;;;;;;1.30;1.20;;;19.40;75.50;;;;;;5094651;28;20076;-61
2021/09/21 01:36:28;;;;;;;1.42;1.30;;;19.40;75.50;;;;;;5093981;28;20052;-60
2021/09/21 01:38:54;;;;;;;1.33;1.10;;;19.40;75.50;;;;;;5094790;28;20485;-60
2021/09/21 01:41:20;;;;;;;1.25;1.15;;;19.40;75.70;;;;;;5095149;28;20051;-60
2021/09/21 01:43:46;;;;;;;1.38;1.20;;;19.40;75.40;;;;;;5094756;28;20063;-61
2021/09/21 01:46:18;;;;;;;1.05;0.95;;;19.30;75.40;;;;;;5094967;28;20040;-60
2021/09/21 01:48:46;;;;;;;1.08;0.98;;;19.30;75.40;;;;;;5095087;28;20089;-61
2021/09/21 01:51:48;;;;;;;1.33;1.17;;;19.40;75.50;;;;;;5093889;28;20082;-61
2021/09/21 01:54:22;;;;;;;1.17;1.08;;;19.40;75.50;;;;;;5094324;28;20055;-61
2021/09/21 01:59:32;;;;;;;1.25;1.15;;;19.40;75.50;;;;;;5094528;28;20044;-60
2021/09/21 02:01:57;;;;;;;1.00;0.90;;;19.40;75.50;;;;;;5094236;28;20395;-61
2021/09/21 02:04:23;;;;;;;1.25;1.15;;;19.40;75.50;;;;;;5094642;28;20040;-61
2021/09/21 02:06:49;;;;;;;1.30;1.10;;;19.30;75.40;;;;;;5094281;28;20075;-59
2021/09/21 02:09:15;;;;;;;1.00;0.90;;;19.30;75.40;;;;;;5093518;28;20054;-61
2021/09/21 02:11:43;;;;;;;1.45;1.20;;;19.40;75.40;;;;;;5093842;28;20385;-61
2021/09/21 02:14:11;;;;;;;1.23;1.13;;;19.30;75.40;;;;;;5094402;28;20110;-61
2021/09/21 02:16:38;;;;;;;1.25;1.15;;;19.40;75.40;;;;;;5094186;28;20052;-60
2021/09/21 02:19:04;;;;;;;1.50;1.20;;;19.30;75.40;;;;;;5093027;28;20043;-61
2021/09/21 02:21:30;;;;;;;1.10;1.00;;;19.40;75.40;;;;;;5093820;28;20040;-61
2021/09/21 02:23:58;;;;;;;1.40;1.30;;;19.30;75.30;;;;;;5093832;28;20059;-61
2021/09/21 02:26:24;;;;;;;1.30;1.20;;;19.40;75.50;;;;;;5093925;28;20071;-61
2021/09/21 02:28:50;;;;;;;0.95;0.90;;;19.30;75.40;;;;;;5093740;28;20075;-60
2021/09/21 02:31:16;;;;;;;1.15;1.05;;;19.40;75.40;;;;;;5093484;28;20036;-61
2021/09/21 02:33:41;;;;;;;1.25;1.13;;;19.30;75.30;;;;;;5093424;28;20051;-61
2021/09/21 02:36:07;;;;;;;1.10;1.00;;;19.40;75.40;;;;;;5092444;28;20064;-60
2021/09/21 02:38:33;;;;;;;1.40;1.30;;;19.30;75.40;;;;;;5093308;28;20036;-57
2021/09/21 02:40:59;;;;;;;1.33;1.20;;;19.40;75.40;;;;;;5093814;28;20040;-56
2021/09/21 02:43:25;;;;;;;1.20;1.08;;;19.30;75.30;;;;;;5093379;28;20044;-62
2021/09/21 02:45:51;;;;;;;1.20;1.10;;;19.40;75.40;;;;;;5092400;28;20063;-61
2021/09/21 02:48:16;;;;;;;1.23;1.13;;;19.30;75.30;;;;;;5093607;28;20040;-61
2021/09/21 02:50:43;;;;;;;1.08;0.98;;;19.40;75.40;;;;;;5093563;28;20044;-56
2021/09/21 02:53:09;;;;;;;1.20;1.10;;;19.30;75.30;;;;;;5092715;28;20036;-53
2021/09/21 02:55:35;;;;;;;1.25;1.15;;;19.30;75.30;;;;;;5093102;28;20117;-56
2021/09/21 02:58:00;;;;;;;1.20;1.10;;;19.30;75.30;;;;;;5092873;28;20509;-61
2021/09/21 03:00:27;;;;;;;1.45;1.30;;;19.30;75.30;;;;;;5092928;28;20043;-61
2021/09/21 03:02:55;;;;;;;1.67;1.02;;;19.30;75.30;;;;;;5093182;28;20093;-60
2021/09/21 03:05:30;;;;;;;1.15;1.05;;;19.30;75.30;;;;;;5092978;28;20040;-60
2021/09/21 03:08:00;;;;;;;1.27;1.17;;;19.30;75.30;;;;;;5093273;28;20354;-61
2021/09/21 03:18:32;;;;;;;1.50;1.25;;;19.30;75.40;;;;;;5093050;28;20040;-60
2021/09/21 03:20:58;;;;;;;1.20;1.10;;;19.30;75.30;;;;;;5092973;28;20050;-59
2021/09/21 03:23:24;;;;;;;1.38;1.27;;;19.30;75.30;;;;;;5093318;28;20036;-55
2021/09/21 03:25:50;;;;;;;1.15;1.05;;;19.30;75.30;;;;;;5084705;28;20055;-61
2021/09/21 03:28:15;;;;;;;1.20;1.10;;;19.30;75.30;;;;;;5093135;28;20075;-61
2021/09/21 03:30:41;;;;;;;1.27;1.17;;;19.30;75.30;;;;;;5093198;28;20052;-61
2021/09/21 03:33:07;;;;;;;1.20;1.10;;;19.30;75.30;;;;;;5092707;28;20040;-59
2021/09/21 03:35:32;;;;;;;1.20;1.10;;;19.30;75.30;;;;;;5091399;28;20050;-60
2021/09/21 03:37:58;;;;;;;1.55;1.25;;;19.30;75.30;;;;;;5091726;28;20043;-60
2021/09/21 03:40:24;;;;;;;1.20;1.10;;;19.30;75.30;;;;;;5092521;28;20048;-60
2021/09/21 03:42:50;;;;;;;1.08;0.98;;;19.30;75.30;;;;;;5092797;28;20177;-61
2021/09/21 03:45:15;;;;;;;1.52;1.13;;;19.30;75.30;;;;;;5091521;28;20123;-61
2021/09/21 03:47:41;;;;;;;1.63;1.33;;;19.30;75.30;;;;;;5092946;28;20047;-61
2021/09/21 03:50:08;;;;;;;1.20;1.10;;;19.30;75.30;;;;;;5092430;28;20442;-62
2021/09/21 03:52:34;;;;;;;1.20;1.10;;;19.30;75.30;;;;;;5093107;28;20123;-61
2021/09/21 03:55:00;;;;;;;1.60;1.10;;;19.30;75.20;;;;;;5092448;28;20097;-58
2021/09/21 03:57:25;;;;;;;1.20;1.10;;;19.30;75.30;;;;;;5091727;28;20032;-59
2021/09/21 03:59:51;;;;;;;1.42;1.33;;;19.30;75.30;;;;;;5092244;28;20478;-60
2021/09/21 04:02:16;;;;;;;1.45;1.30;;;19.30;75.30;;;;;;5092524;28;20040;-59
2021/09/21 04:04:42;;;;;;;1.23;1.10;;;19.30;75.30;;;;;;5092153;28;20406;-59
2021/09/21 04:07:08;;;;;;;1.50;1.27;;;19.30;75.30;;;;;;5092339;28;20043;-60
2021/09/21 04:09:33;;;;;;;1.30;1.20;;;19.30;75.30;;;;;;5092606;28;20123;-60
2021/09/21 04:11:59;;;;;;;1.40;1.30;;;19.30;75.30;;;;;;5091862;28;20090;-60
2021/09/21 04:14:25;;;;;;;1.73;1.50;;;19.20;75.20;;;;;;5090142;28;20062;-60
2021/09/21 04:16:50;;;;;;;1.25;1.10;;;19.30;75.20;;;;;;5092382;28;20063;-59
2021/09/21 04:19:16;;;;;;;1.20;1.10;;;19.30;75.20;;;;;;5091824;28;20051;-61
2021/09/21 04:21:42;;;;;;;0.93;0.90;;;19.30;75.30;;;;;;5090655;28;20067;-59
2021/09/21 04:24:08;;;;;;;1.13;1.02;;;19.30;75.20;;;;;;5092159;28;20040;-60
2021/09/21 04:26:33;;;;;;;1.98;1.35;;;19.30;75.20;;;;;;5092011;28;20046;-60
2021/09/21 04:28:59;;;;;;;1.23;1.10;;;19.30;75.20;;;;;;5091310;28;20036;-60
2021/09/21 04:31:27;;;;;;;1.27;1.17;;;19.30;75.20;;;;;;5090825;28;20060;-59
2021/09/21 04:33:54;;;;;;;1.40;1.30;;;19.20;75.20;;;;;;5091971;28;20039;-59
2021/09/21 04:36:20;;;;;;;1.20;1.10;;;19.30;75.20;;;;;;5092105;28;20044;-60
2021/09/21 04:38:47;;;;;;;1.48;1.38;;;19.30;75.20;;;;;;5092070;28;20114;-55
2021/09/21 04:41:13;;;;;;;1.20;1.10;;;19.30;75.20;;;;;;5092268;28;20040;-60
2021/09/21 04:43:39;;;;;;;1.30;1.15;;;19.30;75.20;;;;;;5091792;28;20040;-59
2021/09/21 04:46:06;;;;;;;1.25;1.15;;;19.30;75.20;;;;;;5091557;28;20040;-61
2021/09/21 04:48:32;;;;;;;1.60;1.50;;;19.30;75.20;;;;;;5091939;28;20389;-59
2021/09/21 04:50:58;;;;;;;1.63;1.30;;;19.30;75.10;;;;;;5091582;28;20051;-57
2021/09/21 04:53:24;;;;;;;1.45;1.27;;;19.30;75.20;;;;;;5091975;28;20086;-59
2021/09/21 04:55:49;;;;;;;1.30;1.20;;;19.20;75.10;;;;;;5091753;28;20461;-61
2021/09/21 04:58:15;;;;;;;1.30;1.20;;;19.20;75.10;;;;;;5090744;28;20040;-61
2021/09/21 05:00:40;;;;;;;1.17;1.00;;;19.20;75.10;;;;;;5090640;28;20040;-61
2021/09/21 05:03:06;;;;;;;1.60;1.50;;;19.30;75.20;;;;;;5089732;28;20112;-61
2021/09/21 05:05:32;;;;;;;1.20;1.10;;;19.30;75.20;;;;;;5090455;28;20071;-60
2021/09/21 05:07:59;;;;;;;1.20;1.10;;;19.20;75.10;;;;;;5092693;28;20093;-55
2021/09/21 05:10:25;;;;;;;1.23;1.13;;;19.30;75.20;;;;;;5093998;28;20044;-55
2021/09/21 05:12:51;;;;;;;0.75;0.75;;;19.20;75.10;;;;;;5094748;28;20036;-56
2021/09/21 05:15:17;;;;;;;1.63;1.02;;;19.30;75.10;;;;;;5093636;28;20060;-59
2021/09/21 05:17:43;;;;;;;1.15;1.05;;;19.20;75.10;;;;;;5094905;28;20039;-61
2021/09/21 05:20:09;;;;;;;1.25;1.13;;;19.30;75.10;;;;;;5095380;28;20036;-56
2021/09/21 05:22:35;;;;;;;1.20;1.10;;;19.20;75.10;;;;;;5094761;28;20407;-60
2021/09/21 05:25:01;;;;;;;1.30;1.15;;;19.30;75.20;;;;;;5095196;28;20118;-57
2021/09/21 05:27:27;;;;;;;1.35;1.10;;;19.30;75.10;;;;;;5095205;28;20154;-60
2021/09/21 05:29:52;;;;;;;1.23;1.13;;;19.20;75.10;;;;;;5094610;28;20044;-61
2021/09/21 05:32:18;;;;;;;1.45;1.00;;;19.20;75.10;;;;;;5093808;28;20032;-59
2021/09/21 05:34:44;;;;;;;1.10;1.00;;;19.20;75.10;;;;;;5094989;28;20040;-60
2021/09/21 05:37:09;;;;;;;1.20;1.10;;;19.20;75.10;;;;;;5093547;28;20040;-55
2021/09/21 05:39:35;;;;;;;1.63;1.30;;;19.20;75.10;;;;;;5094264;28;20443;-61
2021/09/21 05:42:01;;;;;;;1.30;1.20;;;19.30;75.10;;;;;;5094652;28;20062;-59
2021/09/21 05:44:26;;;;;;;1.30;1.20;;;19.20;75.10;;;;;;5093983;28;20043;-60
2021/09/21 05:46:52;;;;;;;1.30;1.20;;;19.20;75.00;;;;;;5094464;28;20164;-54
2021/09/21 05:49:17;;;;;;;1.08;1.08;;;19.20;75.00;;;;;;5094034;28;20105;-60
2021/09/21 05:51:43;;;;;;;1.45;1.35;;;19.20;75.00;;;;;;5093238;28;20053;-59
2021/09/21 05:54:09;;;;;;;1.08;1.00;;;19.20;75.00;;;;;;5094312;28;20063;-61
2021/09/21 05:56:35;;;;;;;1.70;1.25;;;19.20;75.00;;;;;;5093682;28;20083;-59
2021/09/21 05:59:00;;;;;;;1.70;1.33;;;19.20;75.00;;;;;;5094286;28;20040;-61
2021/09/21 06:01:29;;;;;;;1.52;1.30;;;19.20;75.00;;;;;;5094580;28;20052;-61
2021/09/21 06:03:55;;;;;;;1.52;1.30;;;19.20;75.00;;;;;;5094207;28;20445;-62
2021/09/21 06:06:21;;;;;;;1.30;1.20;;;19.20;75.00;;;;;;5093020;28;20044;-60
2021/09/21 06:08:47;;;;;;;1.40;1.30;;;19.30;75.10;;;;;;5092925;28;20087;-61
2021/09/21 06:11:19;;;;;;;1.50;1.30;;;19.20;75.00;;;;;;5094660;28;20561;-61
2021/09/21 06:13:49;;;;;;;1.23;1.13;;;19.20;75.00;;;;;;5092507;28;20052;-57
2021/09/21 06:16:17;;;;;;;1.55;1.30;;;19.20;75.00;;;;;;5094169;28;20094;-61
2021/09/21 06:18:43;;;;;;;1.40;1.30;;;19.20;75.00;;;;;;5093770;28;20392;-60
2021/09/21 06:21:09;;;;;;;1.45;1.27;;;19.20;75.00;;;;;;5094492;28;20040;-60
2021/09/21 06:23:34;;;;;;;1.20;1.10;;;19.20;74.90;;;;;;5093834;28;20047;-59
2021/09/21 06:26:00;;;;;;;1.15;1.02;;;19.20;75.00;;;;;;5093876;28;20393;-61
2021/09/21 06:28:25;;;;;;;1.30;1.20;;;19.20;74.90;;;;;;5093816;28;20107;-59
2021/09/21 06:30:51;;;;;;;1.48;1.38;;;19.20;75.00;;;;;;5093537;28;20085;-61
2021/09/21 06:33:17;;;;;;;1.40;1.30;;;19.20;75.00;;;;;;5092564;28;20048;-57
2021/09/21 06:35:43;;;;;;;1.52;1.20;;;19.20;75.00;;;;;;5092916;28;20067;-62
2021/09/21 06:38:08;;;;;;;1.60;1.42;;;19.20;75.00;;;;;;5093600;28;20047;-55
2021/09/21 06:40:34;;;;;;;1.50;1.30;;;19.20;75.00;;;;;;5094240;28;20525;-61
2021/09/21 06:43:00;;;;;;;1.40;1.30;;;19.20;74.90;;;;;;5093681;28;20111;-61
2021/09/21 06:45:25;;;;;;;1.38;1.27;;;19.20;75.00;;;;;;5092197;28;20148;-60
2021/09/21 06:47:52;;;;;;;1.20;1.10;;;19.20;74.90;;;;;;5093236;28;20054;-62
2021/09/21 06:50:18;;;;;;;1.83;1.40;;;19.20;74.90;;;;;;5092944;28;20472;-59
2021/09/21 06:52:43;;;;;;;1.50;1.25;;;19.20;75.00;;;;;;5083935;28;20047;-57
2021/09/21 06:55:10;;;;;;;1.90;1.42;;;19.20;75.00;;;;;;5091788;28;20050;-60
2021/09/21 06:57:37;;;;;;;1.35;1.25;;;19.20;75.00;;;;;;5091102;28;20104;-60
2021/09/21 07:00:06;;;;;;;1.90;1.80;;;19.20;74.90;;;;;;5091228;28;20144;-59
2021/09/21 07:02:31;;;;;;;1.63;1.38;;;19.20;74.90;;;;;;5092122;28;20040;-60
2021/09/21 07:04:57;;;;;;;1.40;1.30;;;19.20;75.00;;;;;;5090531;28;20040;-57
2021/09/21 07:07:23;;;;;;;1.50;1.27;;;19.20;75.00;;;;;;5089622;28;20047;-59
2021/09/21 07:09:49;;;;;;;1.60;1.50;;;19.30;75.00;;;;;;5089862;28;20402;-59
2021/09/21 07:12:14;;;;;;;1.50;1.40;;;19.20;74.90;;;;;;5092045;28;20131;-59
2021/09/21 07:14:40;;;;;;;1.33;1.23;;;19.20;74.90;;;;;;5092022;28;20048;-59
2021/09/21 07:17:06;;;;;;;1.40;1.20;;;19.20;74.90;;;;;;5092312;28;20058;-55
2021/09/21 07:19:32;;;;;;;1.60;1.50;;;19.20;74.90;;;;;;5090884;28;20192;-60
2021/09/21 07:21:58;;;;;;;1.10;1.00;;;19.20;74.90;;;;;;5090134;28;20147;-58
2021/09/21 07:24:24;;;;;;;1.52;1.27;;;19.20;75.00;;;;;;5092042;28;20036;-52
2021/09/21 07:26:50;;;;;;;1.40;1.30;;;19.20;74.90;;;;;;5091952;28;20403;-58
2021/09/21 07:29:17;;;;;;;1.40;1.30;;;19.10;74.90;;;;;;5092061;28;20121;-56
2021/09/21 07:31:43;;;;;;;1.60;1.50;;;19.20;74.90;;;;;;5091535;28;20044;-56
2021/09/21 07:34:09;;;;;;;1.95;1.40;;;19.20;74.90;;;;;;5093140;28;20036;-60
2021/09/21 07:36:34;;;;;;;1.45;1.35;;;19.20;74.90;;;;;;5108437;27;20523;-60
2021/09/21 07:39:01;;;;;;;1.20;1.10;;;19.20;75.00;;;;;;5091980;28;20097;-57
2021/09/21 07:41:26;;;;;;;6.20;4.65;;;19.20;74.90;;;;;;5092558;28;20446;-56
2021/09/21 07:43:52;;;;;;;7.05;4.82;;;19.10;71.90;;;;;;5092897;28;20044;-55
2021/09/21 07:46:18;;;;;;;7.95;4.93;;;19.10;70.20;;;;;;5092506;28;20353;-51
2021/09/21 07:48:43;;;;;;;10.07;4.75;;;19.00;70.10;;;;;;5092490;28;20040;-54
2021/09/21 07:51:09;;;;;;;5.22;4.47;;;18.90;70.10;;;;;;5090824;28;20052;-56
2021/09/21 07:53:35;;;;;;;5.28;4.78;;;18.90;70.40;;;;;;5092240;28;20511;-55
2021/09/21 07:56:01;;;;;;;7.47;5.25;;;18.90;70.70;;;;;;5091913;28;20044;-56
2021/09/21 07:58:27;;;;;;;5.35;4.22;;;18.90;70.90;;;;;;5092605;28;20085;-56
2021/09/21 08:00:55;;;;;;;7.32;4.43;;;18.90;71.20;;;;;;5092570;28;20047;-56
2021/09/21 08:03:21;;;;;;;4.60;3.90;;;18.90;71.40;;;;;;5092562;28;20047;-56
2021/09/21 08:05:47;;;;;;;5.68;4.43;;;19.00;71.70;;;;;;5092491;28;20036;-56
2021/09/21 08:08:15;;;;;;;5.20;4.10;;;19.00;71.90;;;;;;5092325;28;20097;-54
2021/09/21 08:10:41;;;;;;;10.38;4.68;;;19.00;72.10;;;;;;5091713;28;20055;-52
2021/09/21 08:13:07;;;;;;;5.55;4.53;;;19.00;72.30;;;;;;5092241;28;20119;-55
2021/09/21 08:15:33;;;;;;;4.35;3.95;;;19.00;72.40;;;;;;5090922;28;20132;-55
2021/09/21 08:17:59;;;;;;;5.97;3.90;;;19.00;72.60;;;;;;5092254;28;20043;-52
2021/09/21 08:20:25;;;;;;;5.00;3.90;;;19.00;72.70;;;;;;5092601;28;20100;-55
2021/09/21 08:22:51;;;;;;;4.80;4.15;;;19.00;72.80;;;;;;5092078;28;20084;-55
2021/09/21 08:25:18;;;;;;;6.18;4.30;;;19.00;72.90;;;;;;5091177;28;20052;-54
2021/09/21 08:27:44;;;;;;;5.47;4.00;;;19.00;73.00;;;;;;5092576;28;20457;-55
2021/09/21 08:30:10;;;;;;;5.85;3.70;;;19.00;73.10;;;;;;5092610;28;20064;-55
2021/09/21 08:32:35;;;;;;;5.18;3.53;;;19.00;73.10;;;;;;5091904;28;20076;-54
2021/09/21 08:35:01;;;;;;;5.00;3.78;;;19.00;73.20;;;;;;5092359;28;20090;-56
2021/09/21 08:37:27;;;;;;;4.90;3.38;;;19.00;73.30;;;;;;5092754;28;20040;-55
2021/09/21 08:39:52;;;;;;;3.47;3.05;;;19.00;73.30;;;;;;5091953;28;20043;-55
2021/09/21 08:42:18;;;;;;;3.65;3.22;;;19.00;73.40;;;;;;5092367;28;20123;-52
2021/09/21 08:44:44;;;;;;;5.70;3.67;;;19.00;73.50;;;;;;5095947;28;20121;-55
2021/09/21 08:47:10;;;;;;;4.75;3.50;;;19.10;73.50;;;;;;5096424;28;20154;-55
2021/09/21 08:49:35;;;;;;;3.72;3.10;;;19.10;73.50;;;;;;5096382;28;20055;-56
2021/09/21 08:52:02;;;;;;;3.72;2.83;;;19.10;73.60;;;;;;5095853;28;20037;-55
2021/09/21 08:54:27;;;;;;;3.47;3.13;;;19.00;73.60;;;;;;5095178;28;20448;-54
2021/09/21 08:56:55;;;;;;;3.97;3.10;;;19.00;73.60;;;;;;5095408;28;20039;-55
2021/09/21 08:59:32;;;;;;;5.10;3.15;;;19.10;73.70;;;;;;5095718;28;20058;-54
2021/09/21 09:02:07;;;;;;;4.90;3.17;;;19.00;73.70;;;;;;5095355;28;20556;-54
2021/09/21 09:04:33;;;;;;;4.47;2.75;;;19.10;73.80;;;;;;5095609;28;20098;-55
2021/09/21 09:06:59;;;;;;;3.40;3.00;;;19.10;73.80;;;;;;5095729;28;20120;-54
2021/09/21 09:09:30;;;;;;;3.92;3.03;;;19.10;73.80;;;;;;5095953;28;20044;-55
2021/09/21 09:11:59;;;;;;;3.17;2.45;;;19.10;73.80;;;;;;5095575;28;20446;-54
2021/09/21 09:14:30;;;;;;;3.38;2.70;;;19.10;73.90;;;;;;5095616;28;20044;-54
2021/09/21 09:17:01;;;;;;;4.03;2.35;;;19.10;73.90;;;;;;5094093;28;20052;-54
2021/09/21 09:19:39;;;;;;;3.90;2.80;;;19.10;73.90;;;;;;5094703;28;20101;-54
2021/09/21 09:22:23;;;;;;;4.05;3.17;;;19.10;73.90;;;;;;5095031;28;20040;-55
2021/09/21 09:24:50;;;;;;;6.65;3.10;;;19.10;74.00;;;;;;5095625;28;20387;-54
2021/09/21 09:27:18;;;;;;;3.40;2.35;;;19.10;74.00;;;;;;5094617;28;20058;-55
2021/09/21 09:29:54;;;;;;;3.00;2.65;;;19.10;74.00;;;;;;5095099;28;20040;-54
2021/09/21 09:32:20;;;;;;;2.95;2.33;;;19.10;74.00;;;;;;5095529;28;20046;-54
2021/09/21 09:34:45;;;;;;;3.60;2.70;;;19.10;74.00;;;;;;5076584;28;20403;-52
2021/09/21 09:37:11;;;;;;;2.88;2.50;;;19.10;74.00;;;;;;5093556;28;20052;-55
2021/09/21 09:39:38;;;;;;;3.33;2.30;;;19.10;74.10;;;;;;5095053;28;20044;-56
2021/09/21 09:42:04;;;;;;;2.40;2.20;;;19.10;74.10;;;;;;5093844;28;20067;-53
2021/09/21 09:44:31;;;;;;;3.22;2.40;;;19.10;74.10;;;;;;5094492;28;20133;-54
2021/09/21 09:47:00;;;;;;;2.80;2.28;;;19.10;74.10;;;;;;5093361;28;20050;-54
2021/09/21 09:49:39;;;;;;;3.90;2.35;;;19.10;74.20;;;;;;5094245;28;20036;-54
2021/09/21 09:52:06;;;;;;;2.47;2.22;;;19.10;74.20;;;;;;5094819;28;20044;-53
2021/09/21 09:54:32;;;;;;;2.90;2.10;;;19.10;74.20;;;;;;5092854;28;20123;-49
2021/09/21 09:56:58;;;;;;;3.30;2.20;;;19.10;74.30;;;;;;5087269;28;20048;-53
2021/09/21 09:59:28;;;;;;;2.92;2.35;;;19.10;74.30;;;;;;5093480;28;20040;-48
2021/09/21 10:01:53;;;;;;;2.60;2.20;;;19.10;74.30;;;;;;5094574;28;20509;-54
2021/09/21 10:04:19;;;;;;;2.72;2.15;;;19.10;74.30;;;;;;5094130;28;20175;-52
2021/09/21 10:06:45;;;;;;;2.70;2.10;;;19.10;74.40;;;;;;5094148;28;20044;-47
2021/09/21 10:09:11;;;;;;;2.10;1.90;;;19.10;74.40;;;;;;5093677;28;20044;-48
2021/09/21 10:11:38;;;;;;;2.22;2.03;;;19.10;74.40;;;;;;5093665;28;20591;-46
2021/09/21 10:14:05;;;;;;;2.08;1.88;;;19.10;74.40;;;;;;5093202;28;20036;-49
2021/09/21 10:16:32;;;;;;;2.20;1.90;;;19.10;74.40;;;;;;5092074;28;20185;-47
2021/09/21 10:19:03;;;;;;;2.38;2.00;;;19.10;74.50;;;;;;5092059;28;20150;-53
2021/09/21 10:21:34;;;;;;;1.77;1.60;;;19.20;74.50;;;;;;5093609;28;20047;-48
2021/09/21 10:24:03;;;;;;;2.40;1.90;;;19.10;74.50;;;;;;5093792;28;20134;-49
2021/09/21 10:26:30;;;;;;;2.42;2.00;;;19.10;74.50;;;;;;5093424;28;20129;-47
2021/09/21 10:28:58;;;;;;;2.10;1.70;;;19.10;74.60;;;;;;5093392;28;20512;-48
2021/09/21 10:31:24;;;;;;;2.65;1.90;;;19.10;74.60;;;;;;5092872;28;20442;-47
2021/09/21 10:33:51;;;;;;;1.85;1.75;;;19.10;74.60;;;;;;5093762;28;20056;-50
2021/09/21 10:36:32;;;;;;;2.42;1.75;;;19.10;74.60;;;;;;5091666;28;20080;-46
2021/09/21 10:39:06;;;;;;;2.05;1.85;;;19.20;74.70;;;;;;5091907;28;20044;-50
2021/09/21 10:41:32;;;;;;;3.40;2.17;;;19.20;74.70;;;;;;5093419;28;20039;-53
2021/09/21 10:44:07;;;;;;;1.85;1.60;;;19.10;74.70;;;;;;5093557;28;20134;-48
2021/09/21 10:46:43;;;;;;;1.98;1.77;;;19.20;74.80;;;;;;5091842;28;20056;-49
2021/09/21 10:49:09;;;;;;;2.85;2.08;;;19.20;74.80;;;;;;5093427;28;20040;-54
2021/09/21 10:51:35;;;;;;;2.90;1.75;;;19.20;74.80;;;;;;5092792;28;20122;-50
2021/09/21 10:54:04;;;;;;;1.90;1.70;;;19.10;74.80;;;;;;5093549;28;20573;-52
2021/09/21 10:56:31;;;;;;;2.33;1.92;;;19.20;74.80;;;;;;5091583;28;20063;-48
2021/09/21 10:58:58;;;;;;;1.85;1.67;;;19.10;74.80;;;;;;5092921;28;20036;-52
2021/09/21 11:01:25;;;;;;;2.75;1.85;;;19.20;74.80;;;;;;5090214;28;20079;-46
2021/09/21 11:03:50;;;;;;;1.73;1.50;;;19.10;74.80;;;;;;5089290;28;20079;-49
2021/09/21 11:06:16;;;;;;;1.80;1.55;;;19.20;74.90;;;;;;5088562;28;20094;-51
2021/09/21 11:08:44;;;;;;;2.60;1.80;;;19.20;74.90;;;;;;5088898;28;20059;-48
2021/09/21 11:11:10;;;;;;;1.80;1.70;;;19.20;74.90;;;;;;5089226;28;20411;-50
2021/09/21 11:13:40;;;;;;;2.55;1.33;;;19.20;74.90;;;;;;5088365;28;20040;-51
2021/09/21 11:16:08;;;;;;;1.83;1.60;;;19.20;74.90;;;;;;5089237;28;20064;-48
2021/09/21 11:18:36;;;;;;;1.67;1.42;;;19.20;74.90;;;;;;5088379;28;20036;-49
2021/09/21 11:21:05;;;;;;;1.65;1.55;;;19.20;74.90;;;;;;5089447;28;20048;-48
2021/09/21 11:23:40;;;;;;;2.63;1.70;;;19.20;74.90;;;;;;5088801;28;20488;-53
2021/09/21 11:26:08;;;;;;;1.95;1.60;;;19.20;75.00;;;;;;5089431;28;20052;-50
2021/09/21 11:28:38;;;;;;;1.70;1.60;;;19.20;74.90;;;;;;5088364;28;20052;-48
2021/09/21 11:31:06;;;;;;;1.83;1.50;;;19.20;75.00;;;;;;5088688;28;20061;-49
2021/09/21 11:33:34;;;;;;;1.52;1.40;;;19.20;75.00;;;;;;5088295;28;20052;-50
2021/09/21 11:36:08;;;;;;;1.50;1.40;;;19.20;75.00;;;;;;5089190;28;20444;-55
2021/09/21 11:38:39;;;;;;;1.60;1.50;;;19.20;75.10;;;;;;5088095;28;20059;-50
2021/09/21 11:41:05;;;;;;;2.38;1.60;;;19.20;75.00;;;;;;5088762;28;20051;-52
2021/09/21 11:43:31;;;;;;;1.83;1.63;;;19.20;75.10;;;;;;5088186;28;20080;-52
2021/09/21 11:45:57;;;;;;;1.77;1.50;;;19.20;75.00;;;;;;5088853;28;20082;-50
2021/09/21 11:48:23;;;;;;;1.63;1.40;;;19.20;75.10;;;;;;5088092;28;20048;-53
2021/09/21 11:50:50;;;;;;;1.98;1.30;;;19.20;75.10;;;;;;5088172;28;20055;-47
2021/09/21 11:53:19;;;;;;;1.70;1.50;;;19.20;75.10;;;;;;5087859;28;20052;-49
2021/09/21 11:55:46;;;;;;;1.52;1.42;;;19.20;75.10;;;;;;5087950;28;20511;-52
2021/09/21 11:58:14;;;;;;;1.92;1.55;;;19.20;75.10;;;;;;5088594;28;20476;-50
2021/09/21 12:00:44;;;;;;;1.70;1.50;;;19.20;75.10;;;;;;5087851;28;20052;-52
2021/09/21 12:03:18;;;;;;;1.30;1.20;;;19.20;75.10;;;;;;5088351;28;20044;-49
2021/09/21 12:05:46;;;;;;;1.83;1.33;;;19.20;75.10;;;;;;5087775;28;20040;-52
2021/09/21 12:08:24;;;;;;;1.48;1.38;;;19.20;75.10;;;;;;5088403;28;20048;-53
2021/09/21 12:11:08;;;;;;;1.45;1.35;;;19.20;75.10;;;;;;5088180;28;20047;-52
2021/09/21 12:13:34;;;;;;;1.50;1.40;;;19.20;75.20;;;;;;5087355;28;20097;-51
2021/09/21 12:16:02;;;;;;;1.70;1.60;;;19.20;75.20;;;;;;5086719;28;20097;-50
2021/09/21 12:18:29;;;;;;;2.67;1.42;;;19.20;75.20;;;;;;5092962;28;20388;-54
2021/09/21 12:21:01;;;;;;;1.83;1.70;;;19.20;75.20;;;;;;5092750;28;20717;-54
2021/09/21 12:23:30;;;;;;;1.58;1.45;;;19.20;75.20;;;;;;5094428;28;20055;-50
2021/09/21 12:25:58;;;;;;;1.60;1.50;;;19.20;75.20;;;;;;5094473;28;20036;-55
2021/09/21 12:28:35;;;;;;;1.55;1.45;;;19.20;75.20;;;;;;5093050;28;20044;-47
2021/09/21 12:31:14;;;;;;;1.60;1.50;;;19.20;75.30;;;;;;5094271;28;20131;-53
2021/09/21 12:33:42;;;;;;;1.58;1.48;;;19.20;75.20;;;;;;5094404;28;20535;-52
2021/09/21 12:36:20;;;;;;;1.73;1.50;;;19.20;75.30;;;;;;5092898;28;20069;-55
2021/09/21 12:39:00;;;;;;;1.80;1.40;;;19.20;75.30;;;;;;5094763;28;20052;-56
2021/09/21 12:41:28;;;;;;;1.95;1.40;;;19.20;75.90;;;;;;5098556;28;20508;-54
2021/09/21 12:43:55;;;;;;;1.77;1.50;;;19.20;75.20;;;;;;5098749;28;20488;-56
2021/09/21 12:46:21;;;;;;;1.60;1.50;;;19.30;75.30;;;;;;5099009;28;20044;-54
2021/09/21 12:48:47;;;;;;;1.40;1.30;;;19.20;75.30;;;;;;5098751;28;20115;-55
2021/09/21 12:51:13;;;;;;;1.65;1.55;;;19.20;75.30;;;;;;5098863;28;20475;-56
2021/09/21 12:53:39;;;;;;;1.40;1.30;;;19.20;75.30;;;;;;5098123;28;20495;-52
2021/09/21 12:56:07;;;;;;;1.50;1.40;;;19.30;75.40;;;;;;5098849;28;20063;-56
2021/09/21 12:58:39;;;;;;;1.95;1.60;;;19.30;75.40;;;;;;5098764;28;20058;-56